sensor_id;sensor_type;location;lat;lon;timestamp;P1;durP1;ratioP1;P2;durP2;ratioP2
59728;SDS011;45588;51.598;5.618;2022-08-19T00:00:05;37.08;;;31.67;;
59728;SDS011;45588;51.598;5.618;2022-08-19T00:02:33;35.80;;;28.10;;
59728;SDS011;45588;51.598;5.618;2022-08-19T00:04:58;34.78;;;30.50;;
59728;SDS011;45588;51.598;5.618;2022-08-19T00:07:23;37.35;;;27.38;;
59728;SDS011;45588;51.598;5.618;2022-08-19T00:09:49;36.15;;;27.48;;
59728;SDS011;45588;51.598;5.618;2022-08-19T00:12:14;35.70;;;29.58;;
59728;SDS011;45588;51.598;5.618;2022-08-19T00:14:40;34.58;;;26.83;;
59728;SDS011;45588;51.598;5.618;2022-08-19T00:17:05;37.75;;;32.28;;
59728;SDS011;45588;51.598;5.618;2022-08-19T00:19:32;35.63;;;31.10;;
59728;SDS011;45588;51.598;5.618;2022-08-19T00:21:58;39.70;;;28.92;;
59728;SDS011;45588;51.598;5.618;2022-08-19T00:24:23;40.20;;;30.05;;
59728;SDS011;45588;51.598;5.618;2022-08-19T00:26:50;47.55;;;38.05;;
59728;SDS011;45588;51.598;5.618;2022-08-19T00:29:17;43.17;;;36.38;;
59728;SDS011;45588;51.598;5.618;2022-08-19T00:31:44;39.20;;;30.88;;
59728;SDS011;45588;51.598;5.618;2022-08-19T00:34:10;42.05;;;30.67;;
59728;SDS011;45588;51.598;5.618;2022-08-19T00:36:36;41.80;;;31.88;;
59728;SDS011;45588;51.598;5.618;2022-08-19T00:39:02;42.85;;;33.42;;
59728;SDS011;45588;51.598;5.618;2022-08-19T00:41:29;40.33;;;33.67;;
59728;SDS011;45588;51.598;5.618;2022-08-19T00:44:08;43.05;;;34.03;;
59728;SDS011;45588;51.598;5.618;2022-08-19T00:46:36;45.25;;;36.38;;
59728;SDS011;45588;51.598;5.618;2022-08-19T00:49:09;47.13;;;35.85;;
59728;SDS011;45588;51.598;5.618;2022-08-19T00:51:40;46.00;;;36.38;;
59728;SDS011;45588;51.598;5.618;2022-08-19T00:54:07;45.47;;;32.20;;
59728;SDS011;45588;51.598;5.618;2022-08-19T00:56:34;37.95;;;31.13;;
59728;SDS011;45588;51.598;5.618;2022-08-19T00:58:59;43.47;;;34.13;;
59728;SDS011;45588;51.598;5.618;2022-08-19T01:01:26;44.88;;;34.08;;
59728;SDS011;45588;51.598;5.618;2022-08-19T01:03:52;47.90;;;37.78;;
59728;SDS011;45588;51.598;5.618;2022-08-19T01:06:17;48.40;;;34.40;;
59728;SDS011;45588;51.598;5.618;2022-08-19T01:08:43;47.47;;;37.05;;
59728;SDS011;45588;51.598;5.618;2022-08-19T01:11:08;46.75;;;35.58;;
59728;SDS011;45588;51.598;5.618;2022-08-19T01:13:34;48.47;;;34.13;;
59728;SDS011;45588;51.598;5.618;2022-08-19T01:16:02;45.45;;;32.22;;
59728;SDS011;45588;51.598;5.618;2022-08-19T01:18:32;32.92;;;17.17;;
59728;SDS011;45588;51.598;5.618;2022-08-19T01:21:05;33.45;;;15.82;;
59728;SDS011;45588;51.598;5.618;2022-08-19T01:23:55;20.70;;;17.85;;
59728;SDS011;45588;51.598;5.618;2022-08-19T01:26:21;25.92;;;21.58;;
59728;SDS011;45588;51.598;5.618;2022-08-19T01:28:49;30.70;;;24.20;;
59728;SDS011;45588;51.598;5.618;2022-08-19T01:31:18;32.63;;;25.00;;
59728;SDS011;45588;51.598;5.618;2022-08-19T01:33:46;48.45;;;23.70;;
59728;SDS011;45588;51.598;5.618;2022-08-19T01:36:16;686.53;;;48.75;;
59728;SDS011;45588;51.598;5.618;2022-08-19T01:38:48;169.10;;;28.45;;
59728;SDS011;45588;51.598;5.618;2022-08-19T01:41:14;31.85;;;23.50;;
59728;SDS011;45588;51.598;5.618;2022-08-19T01:43:40;45.05;;;30.30;;
59728;SDS011;45588;51.598;5.618;2022-08-19T01:46:05;40.58;;;28.92;;
59728;SDS011;45588;51.598;5.618;2022-08-19T01:48:34;24.08;;;15.82;;
59728;SDS011;45588;51.598;5.618;2022-08-19T01:51:02;20.40;;;13.75;;
59728;SDS011;45588;51.598;5.618;2022-08-19T01:53:27;23.70;;;15.70;;
59728;SDS011;45588;51.598;5.618;2022-08-19T01:55:54;16.83;;;13.20;;
59728;SDS011;45588;51.598;5.618;2022-08-19T01:58:20;18.02;;;14.85;;
59728;SDS011;45588;51.598;5.618;2022-08-19T02:00:49;20.33;;;17.23;;
59728;SDS011;45588;51.598;5.618;2022-08-19T02:03:15;21.50;;;16.52;;
59728;SDS011;45588;51.598;5.618;2022-08-19T02:05:40;22.45;;;19.55;;
59728;SDS011;45588;51.598;5.618;2022-08-19T02:08:07;25.65;;;17.50;;
59728;SDS011;45588;51.598;5.618;2022-08-19T02:10:33;26.58;;;18.60;;
59728;SDS011;45588;51.598;5.618;2022-08-19T02:13:04;22.30;;;11.85;;
59728;SDS011;45588;51.598;5.618;2022-08-19T02:15:29;28.80;;;22.70;;
59728;SDS011;45588;51.598;5.618;2022-08-19T02:17:54;23.88;;;18.05;;
59728;SDS011;45588;51.598;5.618;2022-08-19T02:20:20;29.02;;;21.13;;
59728;SDS011;45588;51.598;5.618;2022-08-19T02:22:45;29.27;;;15.63;;
59728;SDS011;45588;51.598;5.618;2022-08-19T02:25:11;173.88;;;20.80;;
59728;SDS011;45588;51.598;5.618;2022-08-19T02:27:38;65.20;;;23.90;;
59728;SDS011;45588;51.598;5.618;2022-08-19T02:30:05;26.42;;;16.48;;
59728;SDS011;45588;51.598;5.618;2022-08-19T02:32:32;32.47;;;25.23;;
59728;SDS011;45588;51.598;5.618;2022-08-19T02:34:58;26.00;;;20.88;;
59728;SDS011;45588;51.598;5.618;2022-08-19T02:37:23;28.90;;;24.33;;
59728;SDS011;45588;51.598;5.618;2022-08-19T02:40:07;36.95;;;28.23;;
59728;SDS011;45588;51.598;5.618;2022-08-19T02:42:32;162.52;;;25.15;;
59728;SDS011;45588;51.598;5.618;2022-08-19T02:44:58;37.75;;;26.77;;
59728;SDS011;45588;51.598;5.618;2022-08-19T02:47:23;33.30;;;24.15;;
59728;SDS011;45588;51.598;5.618;2022-08-19T02:49:48;186.85;;;26.40;;
59728;SDS011;45588;51.598;5.618;2022-08-19T02:52:14;80.70;;;15.40;;
59728;SDS011;45588;51.598;5.618;2022-08-19T02:54:40;23.65;;;16.88;;
59728;SDS011;45588;51.598;5.618;2022-08-19T02:57:05;25.80;;;20.92;;
59728;SDS011;45588;51.598;5.618;2022-08-19T02:59:31;26.88;;;22.88;;
59728;SDS011;45588;51.598;5.618;2022-08-19T03:01:57;27.10;;;19.00;;
59728;SDS011;45588;51.598;5.618;2022-08-19T03:04:22;38.63;;;27.20;;
59728;SDS011;45588;51.598;5.618;2022-08-19T03:06:49;41.90;;;28.52;;
59728;SDS011;45588;51.598;5.618;2022-08-19T03:09:14;41.65;;;21.45;;
59728;SDS011;45588;51.598;5.618;2022-08-19T03:11:40;24.38;;;18.67;;
59728;SDS011;45588;51.598;5.618;2022-08-19T03:14:06;18.20;;;13.40;;
59728;SDS011;45588;51.598;5.618;2022-08-19T03:16:35;14.93;;;10.65;;
59728;SDS011;45588;51.598;5.618;2022-08-19T03:19:06;14.23;;;10.50;;
59728;SDS011;45588;51.598;5.618;2022-08-19T03:21:32;101.53;;;8.88;;
59728;SDS011;45588;51.598;5.618;2022-08-19T03:23:59;134.63;;;11.18;;
59728;SDS011;45588;51.598;5.618;2022-08-19T03:26:27;354.67;;;24.88;;
59728;SDS011;45588;51.598;5.618;2022-08-19T03:28:53;26.65;;;18.55;;
59728;SDS011;45588;51.598;5.618;2022-08-19T03:31:19;469.95;;;30.80;;
59728;SDS011;45588;51.598;5.618;2022-08-19T03:33:48;189.70;;;22.05;;
59728;SDS011;45588;51.598;5.618;2022-08-19T03:36:15;120.45;;;18.25;;
59728;SDS011;45588;51.598;5.618;2022-08-19T03:38:44;685.22;;;31.10;;
59728;SDS011;45588;51.598;5.618;2022-08-19T03:41:14;194.02;;;18.23;;
59728;SDS011;45588;51.598;5.618;2022-08-19T03:43:41;19.85;;;12.60;;
59728;SDS011;45588;51.598;5.618;2022-08-19T03:46:11;39.75;;;12.82;;
59728;SDS011;45588;51.598;5.618;2022-08-19T03:48:39;62.55;;;15.43;;
59728;SDS011;45588;51.598;5.618;2022-08-19T03:51:07;128.20;;;16.88;;
59728;SDS011;45588;51.598;5.618;2022-08-19T03:53:33;43.75;;;14.52;;
59728;SDS011;45588;51.598;5.618;2022-08-19T03:56:00;167.27;;;11.40;;
59728;SDS011;45588;51.598;5.618;2022-08-19T03:58:26;127.88;;;19.15;;
59728;SDS011;45588;51.598;5.618;2022-08-19T04:00:54;20.33;;;15.18;;
59728;SDS011;45588;51.598;5.618;2022-08-19T04:03:21;27.35;;;18.83;;
59728;SDS011;45588;51.598;5.618;2022-08-19T04:05:47;33.03;;;25.40;;
59728;SDS011;45588;51.598;5.618;2022-08-19T04:08:13;35.55;;;22.77;;
59728;SDS011;45588;51.598;5.618;2022-08-19T04:10:40;39.08;;;19.67;;
59728;SDS011;45588;51.598;5.618;2022-08-19T04:13:07;42.67;;;25.20;;
59728;SDS011;45588;51.598;5.618;2022-08-19T04:15:33;42.50;;;27.95;;
59728;SDS011;45588;51.598;5.618;2022-08-19T04:18:06;302.13;;;26.27;;
59728;SDS011;45588;51.598;5.618;2022-08-19T04:20:32;34.58;;;19.73;;
59728;SDS011;45588;51.598;5.618;2022-08-19T04:22:58;29.85;;;17.73;;
59728;SDS011;45588;51.598;5.618;2022-08-19T04:25:23;416.95;;;22.95;;
59728;SDS011;45588;51.598;5.618;2022-08-19T04:27:48;232.60;;;22.25;;
59728;SDS011;45588;51.598;5.618;2022-08-19T04:30:14;35.55;;;17.55;;
59728;SDS011;45588;51.598;5.618;2022-08-19T04:32:39;35.90;;;16.30;;
59728;SDS011;45588;51.598;5.618;2022-08-19T04:35:04;19.48;;;16.85;;
59728;SDS011;45588;51.598;5.618;2022-08-19T04:37:30;19.80;;;12.98;;
59728;SDS011;45588;51.598;5.618;2022-08-19T04:39:58;28.20;;;19.52;;
59728;SDS011;45588;51.598;5.618;2022-08-19T04:42:43;26.48;;;15.15;;
59728;SDS011;45588;51.598;5.618;2022-08-19T04:45:10;34.47;;;22.15;;
59728;SDS011;45588;51.598;5.618;2022-08-19T04:47:38;42.60;;;26.63;;
59728;SDS011;45588;51.598;5.618;2022-08-19T04:50:05;46.75;;;27.58;;
59728;SDS011;45588;51.598;5.618;2022-08-19T04:52:31;47.33;;;32.10;;
59728;SDS011;45588;51.598;5.618;2022-08-19T04:54:57;34.45;;;17.48;;
59728;SDS011;45588;51.598;5.618;2022-08-19T04:57:22;25.50;;;17.95;;
59728;SDS011;45588;51.598;5.618;2022-08-19T04:59:48;24.27;;;10.10;;
59728;SDS011;45588;51.598;5.618;2022-08-19T05:02:13;27.15;;;15.90;;
59728;SDS011;45588;51.598;5.618;2022-08-19T05:04:38;18.83;;;13.73;;
59728;SDS011;45588;51.598;5.618;2022-08-19T05:07:04;23.48;;;16.38;;
59728;SDS011;45588;51.598;5.618;2022-08-19T05:09:30;44.05;;;29.23;;
59728;SDS011;45588;51.598;5.618;2022-08-19T05:11:55;50.17;;;31.20;;
59728;SDS011;45588;51.598;5.618;2022-08-19T05:14:20;46.35;;;31.05;;
59728;SDS011;45588;51.598;5.618;2022-08-19T05:16:46;38.33;;;23.73;;
59728;SDS011;45588;51.598;5.618;2022-08-19T05:19:12;53.08;;;31.77;;
59728;SDS011;45588;51.598;5.618;2022-08-19T05:21:56;60.22;;;39.17;;
59728;SDS011;45588;51.598;5.618;2022-08-19T05:24:40;59.58;;;36.22;;
59728;SDS011;45588;51.598;5.618;2022-08-19T05:27:05;69.40;;;31.65;;
59728;SDS011;45588;51.598;5.618;2022-08-19T05:29:31;66.78;;;33.25;;
59728;SDS011;45588;51.598;5.618;2022-08-19T05:31:59;74.15;;;42.67;;
59728;SDS011;45588;51.598;5.618;2022-08-19T05:34:25;88.82;;;53.38;;
59728;SDS011;45588;51.598;5.618;2022-08-19T05:36:53;81.35;;;37.00;;
59728;SDS011;45588;51.598;5.618;2022-08-19T05:39:21;100.28;;;55.58;;
59728;SDS011;45588;51.598;5.618;2022-08-19T05:41:49;88.50;;;42.85;;
59728;SDS011;45588;51.598;5.618;2022-08-19T05:44:17;102.78;;;56.80;;
59728;SDS011;45588;51.598;5.618;2022-08-19T05:46:43;100.72;;;61.38;;
59728;SDS011;45588;51.598;5.618;2022-08-19T05:49:12;98.25;;;62.45;;
59728;SDS011;45588;51.598;5.618;2022-08-19T05:51:38;99.47;;;62.55;;
59728;SDS011;45588;51.598;5.618;2022-08-19T05:54:03;96.18;;;57.60;;
59728;SDS011;45588;51.598;5.618;2022-08-19T05:56:30;97.95;;;60.03;;
59728;SDS011;45588;51.598;5.618;2022-08-19T05:58:56;101.30;;;58.58;;
59728;SDS011;45588;51.598;5.618;2022-08-19T06:01:23;97.25;;;58.83;;
59728;SDS011;45588;51.598;5.618;2022-08-19T06:03:50;99.25;;;62.15;;
59728;SDS011;45588;51.598;5.618;2022-08-19T06:06:16;101.80;;;59.35;;
59728;SDS011;45588;51.598;5.618;2022-08-19T06:08:41;104.63;;;65.63;;
59728;SDS011;45588;51.598;5.618;2022-08-19T06:11:15;96.43;;;64.05;;
59728;SDS011;45588;51.598;5.618;2022-08-19T06:13:51;96.43;;;67.20;;
59728;SDS011;45588;51.598;5.618;2022-08-19T06:16:19;89.78;;;62.85;;
59728;SDS011;45588;51.598;5.618;2022-08-19T06:18:47;90.07;;;56.78;;
59728;SDS011;45588;51.598;5.618;2022-08-19T06:21:13;98.20;;;65.70;;
59728;SDS011;45588;51.598;5.618;2022-08-19T06:23:39;89.45;;;58.35;;
59728;SDS011;45588;51.598;5.618;2022-08-19T06:26:05;92.15;;;59.95;;
59728;SDS011;45588;51.598;5.618;2022-08-19T06:28:30;86.80;;;54.67;;
59728;SDS011;45588;51.598;5.618;2022-08-19T06:30:57;97.38;;;64.05;;
59728;SDS011;45588;51.598;5.618;2022-08-19T06:33:23;90.35;;;58.63;;
59728;SDS011;45588;51.598;5.618;2022-08-19T06:35:48;90.25;;;55.42;;
59728;SDS011;45588;51.598;5.618;2022-08-19T06:38:13;99.43;;;65.45;;
59728;SDS011;45588;51.598;5.618;2022-08-19T06:40:39;99.55;;;61.00;;
59728;SDS011;45588;51.598;5.618;2022-08-19T06:43:04;96.20;;;64.85;;
59728;SDS011;45588;51.598;5.618;2022-08-19T06:45:29;93.05;;;60.85;;
59728;SDS011;45588;51.598;5.618;2022-08-19T06:47:55;99.30;;;64.65;;
59728;SDS011;45588;51.598;5.618;2022-08-19T06:50:21;87.55;;;57.10;;
59728;SDS011;45588;51.598;5.618;2022-08-19T06:52:47;91.97;;;59.03;;
59728;SDS011;45588;51.598;5.618;2022-08-19T06:55:12;91.97;;;54.40;;
59728;SDS011;45588;51.598;5.618;2022-08-19T06:57:38;89.93;;;57.30;;
59728;SDS011;45588;51.598;5.618;2022-08-19T07:00:04;92.40;;;65.45;;
59728;SDS011;45588;51.598;5.618;2022-08-19T07:02:30;90.35;;;58.67;;
59728;SDS011;45588;51.598;5.618;2022-08-19T07:04:55;89.88;;;59.55;;
59728;SDS011;45588;51.598;5.618;2022-08-19T07:07:23;87.68;;;58.85;;
59728;SDS011;45588;51.598;5.618;2022-08-19T07:09:49;86.97;;;65.57;;
59728;SDS011;45588;51.598;5.618;2022-08-19T07:12:15;85.05;;;64.60;;
59728;SDS011;45588;51.598;5.618;2022-08-19T07:14:41;87.63;;;56.78;;
59728;SDS011;45588;51.598;5.618;2022-08-19T07:17:08;87.90;;;53.90;;
59728;SDS011;45588;51.598;5.618;2022-08-19T07:19:35;79.43;;;54.45;;
59728;SDS011;45588;51.598;5.618;2022-08-19T07:22:02;86.25;;;59.58;;
59728;SDS011;45588;51.598;5.618;2022-08-19T07:24:30;83.65;;;61.08;;
59728;SDS011;45588;51.598;5.618;2022-08-19T07:26:57;87.53;;;65.65;;
59728;SDS011;45588;51.598;5.618;2022-08-19T07:31:53;82.22;;;56.92;;
59728;SDS011;45588;51.598;5.618;2022-08-19T07:34:21;78.35;;;50.70;;
59728;SDS011;45588;51.598;5.618;2022-08-19T07:36:47;78.72;;;57.80;;
59728;SDS011;45588;51.598;5.618;2022-08-19T07:39:14;75.93;;;57.17;;
59728;SDS011;45588;51.598;5.618;2022-08-19T07:41:44;70.53;;;52.05;;
59728;SDS011;45588;51.598;5.618;2022-08-19T07:44:11;78.55;;;60.42;;
59728;SDS011;45588;51.598;5.618;2022-08-19T07:46:39;73.57;;;56.38;;
59728;SDS011;45588;51.598;5.618;2022-08-19T07:49:06;79.25;;;57.00;;
59728;SDS011;45588;51.598;5.618;2022-08-19T07:51:33;70.93;;;48.70;;
59728;SDS011;45588;51.598;5.618;2022-08-19T07:53:59;68.55;;;56.63;;
59728;SDS011;45588;51.598;5.618;2022-08-19T07:56:25;74.43;;;50.80;;
59728;SDS011;45588;51.598;5.618;2022-08-19T07:58:51;77.18;;;60.97;;
59728;SDS011;45588;51.598;5.618;2022-08-19T08:01:25;76.38;;;61.55;;
59728;SDS011;45588;51.598;5.618;2022-08-19T08:03:52;77.40;;;59.50;;
59728;SDS011;45588;51.598;5.618;2022-08-19T08:06:37;71.70;;;57.15;;
59728;SDS011;45588;51.598;5.618;2022-08-19T08:09:29;73.40;;;56.05;;
59728;SDS011;45588;51.598;5.618;2022-08-19T08:12:02;68.13;;;56.83;;
59728;SDS011;45588;51.598;5.618;2022-08-19T08:14:35;76.75;;;58.78;;
59728;SDS011;45588;51.598;5.618;2022-08-19T08:17:04;68.15;;;57.05;;
59728;SDS011;45588;51.598;5.618;2022-08-19T08:19:30;75.55;;;59.72;;
59728;SDS011;45588;51.598;5.618;2022-08-19T08:21:56;67.47;;;55.90;;
59728;SDS011;45588;51.598;5.618;2022-08-19T08:24:23;69.47;;;54.20;;
59728;SDS011;45588;51.598;5.618;2022-08-19T08:26:50;68.50;;;57.33;;
59728;SDS011;45588;51.598;5.618;2022-08-19T08:29:15;63.63;;;54.88;;
59728;SDS011;45588;51.598;5.618;2022-08-19T08:31:42;64.68;;;57.33;;
59728;SDS011;45588;51.598;5.618;2022-08-19T08:34:09;91.78;;;56.83;;
59728;SDS011;45588;51.598;5.618;2022-08-19T08:36:37;68.18;;;55.60;;
59728;SDS011;45588;51.598;5.618;2022-08-19T08:39:06;62.47;;;54.17;;
59728;SDS011;45588;51.598;5.618;2022-08-19T08:44:47;73.40;;;51.22;;
59728;SDS011;45588;51.598;5.618;2022-08-19T08:47:30;58.63;;;51.50;;
59728;SDS011;45588;51.598;5.618;2022-08-19T08:50:05;59.42;;;48.78;;
59728;SDS011;45588;51.598;5.618;2022-08-19T08:52:37;60.15;;;51.90;;
59728;SDS011;45588;51.598;5.618;2022-08-19T08:55:11;59.85;;;49.67;;
59728;SDS011;45588;51.598;5.618;2022-08-19T09:00:17;59.65;;;51.78;;
59728;SDS011;45588;51.598;5.618;2022-08-19T09:02:46;66.20;;;54.28;;
59728;SDS011;45588;51.598;5.618;2022-08-19T09:05:12;64.85;;;54.70;;
59728;SDS011;45588;51.598;5.618;2022-08-19T09:10:30;62.35;;;54.00;;
59728;SDS011;45588;51.598;5.618;2022-08-19T09:15:34;59.88;;;53.38;;
59728;SDS011;45588;51.598;5.618;2022-08-19T09:18:07;66.30;;;54.75;;
59728;SDS011;45588;51.598;5.618;2022-08-19T09:20:33;58.78;;;51.92;;
59728;SDS011;45588;51.598;5.618;2022-08-19T09:22:58;59.97;;;53.22;;
59728;SDS011;45588;51.598;5.618;2022-08-19T09:25:24;66.25;;;55.78;;
59728;SDS011;45588;51.598;5.618;2022-08-19T09:27:50;61.90;;;53.58;;
59728;SDS011;45588;51.598;5.618;2022-08-19T09:30:26;61.83;;;51.60;;
59728;SDS011;45588;51.598;5.618;2022-08-19T09:32:53;55.85;;;46.42;;
59728;SDS011;45588;51.598;5.618;2022-08-19T09:35:20;55.10;;;49.05;;
59728;SDS011;45588;51.598;5.618;2022-08-19T09:37:47;53.75;;;47.55;;
59728;SDS011;45588;51.598;5.618;2022-08-19T09:40:14;50.72;;;45.33;;
59728;SDS011;45588;51.598;5.618;2022-08-19T09:42:40;47.25;;;42.22;;
59728;SDS011;45588;51.598;5.618;2022-08-19T09:45:08;44.03;;;39.55;;
59728;SDS011;45588;51.598;5.618;2022-08-19T09:47:34;46.17;;;41.28;;
59728;SDS011;45588;51.598;5.618;2022-08-19T09:50:02;45.72;;;40.97;;
59728;SDS011;45588;51.598;5.618;2022-08-19T09:52:32;47.58;;;42.42;;
59728;SDS011;45588;51.598;5.618;2022-08-19T09:55:02;46.65;;;41.70;;
59728;SDS011;45588;51.598;5.618;2022-08-19T09:57:29;47.50;;;42.38;;
59728;SDS011;45588;51.598;5.618;2022-08-19T09:59:55;48.42;;;41.92;;
59728;SDS011;45588;51.598;5.618;2022-08-19T10:02:21;50.00;;;42.95;;
59728;SDS011;45588;51.598;5.618;2022-08-19T10:04:46;50.67;;;44.67;;
59728;SDS011;45588;51.598;5.618;2022-08-19T10:07:30;48.47;;;43.28;;
59728;SDS011;45588;51.598;5.618;2022-08-19T10:09:55;51.70;;;44.42;;
59728;SDS011;45588;51.598;5.618;2022-08-19T10:12:21;54.40;;;47.90;;
59728;SDS011;45588;51.598;5.618;2022-08-19T10:14:47;53.70;;;46.60;;
59728;SDS011;45588;51.598;5.618;2022-08-19T10:17:13;56.83;;;47.55;;
59728;SDS011;45588;51.598;5.618;2022-08-19T10:19:39;55.42;;;46.85;;
59728;SDS011;45588;51.598;5.618;2022-08-19T10:22:05;53.53;;;47.22;;
59728;SDS011;45588;51.598;5.618;2022-08-19T10:24:32;55.00;;;47.70;;
59728;SDS011;45588;51.598;5.618;2022-08-19T10:26:59;59.17;;;46.85;;
59728;SDS011;45588;51.598;5.618;2022-08-19T10:29:25;56.05;;;47.50;;
59728;SDS011;45588;51.598;5.618;2022-08-19T10:31:53;55.97;;;48.38;;
59728;SDS011;45588;51.598;5.618;2022-08-19T10:34:19;55.85;;;49.88;;
59728;SDS011;45588;51.598;5.618;2022-08-19T10:36:44;51.50;;;45.83;;
59728;SDS011;45588;51.598;5.618;2022-08-19T10:39:10;54.97;;;46.80;;
59728;SDS011;45588;51.598;5.618;2022-08-19T10:41:38;56.70;;;48.25;;
59728;SDS011;45588;51.598;5.618;2022-08-19T10:44:05;53.75;;;47.70;;
59728;SDS011;45588;51.598;5.618;2022-08-19T10:46:35;54.17;;;48.35;;
59728;SDS011;45588;51.598;5.618;2022-08-19T10:49:03;63.40;;;48.90;;
59728;SDS011;45588;51.598;5.618;2022-08-19T10:51:31;54.45;;;47.08;;
59728;SDS011;45588;51.598;5.618;2022-08-19T10:54:15;57.45;;;48.78;;
59728;SDS011;45588;51.598;5.618;2022-08-19T10:56:41;58.88;;;49.00;;
59728;SDS011;45588;51.598;5.618;2022-08-19T10:59:16;57.70;;;48.33;;
59728;SDS011;45588;51.598;5.618;2022-08-19T11:01:44;49.42;;;42.17;;
59728;SDS011;45588;51.598;5.618;2022-08-19T11:04:10;52.90;;;45.40;;
59728;SDS011;45588;51.598;5.618;2022-08-19T11:06:38;50.45;;;42.38;;
59728;SDS011;45588;51.598;5.618;2022-08-19T11:09:05;50.80;;;44.72;;
59728;SDS011;45588;51.598;5.618;2022-08-19T11:11:31;47.38;;;42.33;;
59728;SDS011;45588;51.598;5.618;2022-08-19T11:13:57;51.42;;;43.60;;
59728;SDS011;45588;51.598;5.618;2022-08-19T11:16:25;49.88;;;44.05;;
59728;SDS011;45588;51.598;5.618;2022-08-19T11:18:52;51.90;;;45.65;;
59728;SDS011;45588;51.598;5.618;2022-08-19T11:23:53;52.65;;;45.40;;
59728;SDS011;45588;51.598;5.618;2022-08-19T11:26:23;54.20;;;44.22;;
59728;SDS011;45588;51.598;5.618;2022-08-19T11:28:49;50.42;;;44.97;;
59728;SDS011;45588;51.598;5.618;2022-08-19T11:31:21;51.50;;;43.95;;
59728;SDS011;45588;51.598;5.618;2022-08-19T11:33:49;51.05;;;44.80;;
59728;SDS011;45588;51.598;5.618;2022-08-19T11:36:16;50.00;;;44.63;;
59728;SDS011;45588;51.598;5.618;2022-08-19T11:38:42;46.55;;;41.63;;
59728;SDS011;45588;51.598;5.618;2022-08-19T11:41:07;49.50;;;41.55;;
59728;SDS011;45588;51.598;5.618;2022-08-19T11:43:33;46.42;;;41.35;;
59728;SDS011;45588;51.598;5.618;2022-08-19T11:46:03;46.85;;;41.85;;
59728;SDS011;45588;51.598;5.618;2022-08-19T11:48:32;48.45;;;43.13;;
59728;SDS011;45588;51.598;5.618;2022-08-19T11:50:58;48.90;;;41.90;;
59728;SDS011;45588;51.598;5.618;2022-08-19T11:53:23;47.70;;;40.90;;
59728;SDS011;45588;51.598;5.618;2022-08-19T11:55:49;42.47;;;37.85;;
59728;SDS011;45588;51.598;5.618;2022-08-19T11:58:16;40.70;;;36.30;;
59728;SDS011;45588;51.598;5.618;2022-08-19T12:00:42;40.55;;;36.17;;
59728;SDS011;45588;51.598;5.618;2022-08-19T12:03:10;46.60;;;37.60;;
59728;SDS011;45588;51.598;5.618;2022-08-19T12:05:37;44.33;;;37.28;;
59728;SDS011;45588;51.598;5.618;2022-08-19T12:08:03;42.88;;;38.20;;
59728;SDS011;45588;51.598;5.618;2022-08-19T12:10:29;40.03;;;35.78;;
59728;SDS011;45588;51.598;5.618;2022-08-19T12:12:54;45.70;;;39.22;;
59728;SDS011;45588;51.598;5.618;2022-08-19T12:15:20;45.60;;;40.38;;
59728;SDS011;45588;51.598;5.618;2022-08-19T12:17:45;45.50;;;40.63;;
59728;SDS011;45588;51.598;5.618;2022-08-19T12:20:11;46.05;;;40.20;;
59728;SDS011;45588;51.598;5.618;2022-08-19T12:22:39;42.33;;;37.92;;
59728;SDS011;45588;51.598;5.618;2022-08-19T12:25:06;46.58;;;38.88;;
59728;SDS011;45588;51.598;5.618;2022-08-19T12:27:33;43.03;;;38.53;;
59728;SDS011;45588;51.598;5.618;2022-08-19T12:30:00;44.15;;;39.28;;
59728;SDS011;45588;51.598;5.618;2022-08-19T12:32:26;43.83;;;39.10;;
59728;SDS011;45588;51.598;5.618;2022-08-19T12:34:52;39.83;;;35.55;;
59728;SDS011;45588;51.598;5.618;2022-08-19T12:37:17;36.80;;;33.15;;
59728;SDS011;45588;51.598;5.618;2022-08-19T12:39:43;36.38;;;32.70;;
59728;SDS011;45588;51.598;5.618;2022-08-19T12:42:09;39.03;;;31.77;;
59728;SDS011;45588;51.598;5.618;2022-08-19T12:44:37;44.78;;;30.13;;
59728;SDS011;45588;51.598;5.618;2022-08-19T12:47:04;39.00;;;30.65;;
59728;SDS011;45588;51.598;5.618;2022-08-19T12:49:31;30.60;;;27.50;;
59728;SDS011;45588;51.598;5.618;2022-08-19T12:51:58;30.95;;;26.65;;
59728;SDS011;45588;51.598;5.618;2022-08-19T12:54:27;35.65;;;28.50;;
59728;SDS011;45588;51.598;5.618;2022-08-19T12:56:55;32.50;;;27.52;;
59728;SDS011;45588;51.598;5.618;2022-08-19T12:59:21;28.60;;;25.65;;
59728;SDS011;45588;51.598;5.618;2022-08-19T13:01:46;33.33;;;29.75;;
59728;SDS011;45588;51.598;5.618;2022-08-19T13:04:12;30.85;;;26.95;;
59728;SDS011;45588;51.598;5.618;2022-08-19T13:06:37;31.98;;;28.48;;
59728;SDS011;45588;51.598;5.618;2022-08-19T13:09:03;33.13;;;29.52;;
59728;SDS011;45588;51.598;5.618;2022-08-19T13:11:29;30.80;;;27.00;;
59728;SDS011;45588;51.598;5.618;2022-08-19T13:13:57;31.00;;;27.63;;
59728;SDS011;45588;51.598;5.618;2022-08-19T13:16:23;30.17;;;26.63;;
59728;SDS011;45588;51.598;5.618;2022-08-19T13:18:49;34.88;;;31.08;;
59728;SDS011;45588;51.598;5.618;2022-08-19T13:21:17;36.08;;;30.75;;
59728;SDS011;45588;51.598;5.618;2022-08-19T13:23:45;34.95;;;31.25;;
59728;SDS011;45588;51.598;5.618;2022-08-19T13:26:11;34.97;;;31.30;;
59728;SDS011;45588;51.598;5.618;2022-08-19T13:28:37;37.33;;;33.33;;
59728;SDS011;45588;51.598;5.618;2022-08-19T13:31:22;38.05;;;33.92;;
59728;SDS011;45588;51.598;5.618;2022-08-19T13:34:07;38.42;;;33.97;;
59728;SDS011;45588;51.598;5.618;2022-08-19T13:36:33;39.28;;;35.08;;
59728;SDS011;45588;51.598;5.618;2022-08-19T13:39:00;38.28;;;34.05;;
59728;SDS011;45588;51.598;5.618;2022-08-19T13:41:26;38.22;;;32.67;;
59728;SDS011;45588;51.598;5.618;2022-08-19T13:43:51;34.97;;;30.48;;
59728;SDS011;45588;51.598;5.618;2022-08-19T13:46:17;38.83;;;34.67;;
59728;SDS011;45588;51.598;5.618;2022-08-19T13:48:44;39.00;;;34.92;;
59728;SDS011;45588;51.598;5.618;2022-08-19T13:51:10;40.85;;;36.63;;
59728;SDS011;45588;51.598;5.618;2022-08-19T13:53:36;39.22;;;32.38;;
59728;SDS011;45588;51.598;5.618;2022-08-19T13:56:07;38.60;;;34.60;;
59728;SDS011;45588;51.598;5.618;2022-08-19T13:58:34;39.70;;;33.90;;
59728;SDS011;45588;51.598;5.618;2022-08-19T14:01:00;38.90;;;33.97;;
59728;SDS011;45588;51.598;5.618;2022-08-19T14:03:26;41.25;;;36.72;;
59728;SDS011;45588;51.598;5.618;2022-08-19T14:05:51;41.85;;;37.35;;
59728;SDS011;45588;51.598;5.618;2022-08-19T14:08:17;40.25;;;36.05;;
59728;SDS011;45588;51.598;5.618;2022-08-19T14:10:43;37.50;;;33.42;;
59728;SDS011;45588;51.598;5.618;2022-08-19T14:13:09;37.45;;;32.35;;
59728;SDS011;45588;51.598;5.618;2022-08-19T14:15:34;36.90;;;32.95;;
59728;SDS011;45588;51.598;5.618;2022-08-19T14:18:01;37.58;;;33.38;;
59728;SDS011;45588;51.598;5.618;2022-08-19T14:20:27;31.83;;;28.30;;
59728;SDS011;45588;51.598;5.618;2022-08-19T14:22:53;32.28;;;28.77;;
59728;SDS011;45588;51.598;5.618;2022-08-19T14:25:20;33.88;;;29.75;;
59728;SDS011;45588;51.598;5.618;2022-08-19T14:27:48;32.20;;;26.77;;
59728;SDS011;45588;51.598;5.618;2022-08-19T14:30:15;30.88;;;26.33;;
59728;SDS011;45588;51.598;5.618;2022-08-19T14:32:42;35.00;;;27.42;;
59728;SDS011;45588;51.598;5.618;2022-08-19T14:35:08;31.25;;;26.52;;
59728;SDS011;45588;51.598;5.618;2022-08-19T14:37:34;26.75;;;23.77;;